Terminal Aerodrome Forecast
Issued by NWS Topeka, KS

Home | Current Version | Previous Version | Text Only | Print | Product List | Glossary Off
Versions: 1 2 3 4 5 6 7 8 9 10 11 12 13 14 15 16 17 18 19 20 21

116
FTUS43 KTOP 231720
TAFTOP
TAF
KTOP 231720Z 2318/2418 17011KT P6SM -RA VCTS SCT030CB BKN100
     FM232000 17011KT P6SM SCT022
     FM241000 17007KT P6SM VCTS BKN025CB=

USA.gov is the U.S. government's official web portal to all federal, state and local government web resources and services.